createdAt,value
2022-11-18T00:02:21.765Z,11.60
2022-11-18T00:04:49.634Z,11.30
2022-11-18T00:07:16.949Z,11.53
2022-11-18T00:09:44.602Z,11.59
2022-11-18T00:12:30.280Z,11.64
2022-11-18T00:14:57.514Z,11.83
2022-11-18T00:17:24.773Z,11.85
2022-11-18T00:19:52.085Z,11.81
2022-11-18T00:22:19.268Z,11.64
2022-11-18T00:24:46.487Z,11.73
2022-11-18T00:27:14.024Z,11.84
2022-11-18T00:29:41.257Z,11.70
2022-11-18T00:32:08.441Z,11.74
2022-11-18T00:34:35.989Z,11.66
2022-11-18T00:37:03.359Z,11.62
2022-11-18T00:39:30.630Z,11.62
2022-11-18T00:42:16.449Z,11.62
2022-11-18T00:44:43.876Z,11.65
2022-11-18T00:47:11.113Z,11.78
2022-11-18T00:49:38.395Z,12.00
2022-11-18T00:52:06.425Z,11.56
2022-11-18T00:54:33.598Z,11.48
2022-11-18T00:57:00.811Z,11.37
2022-11-18T00:59:28.045Z,11.37
2022-11-18T01:01:55.424Z,11.30
2022-11-18T01:04:22.966Z,11.48
2022-11-18T01:06:50.185Z,11.38
2022-11-18T01:09:17.636Z,11.29
2022-11-18T01:12:03.783Z,11.37
2022-11-18T01:14:31.149Z,11.37
2022-11-18T01:16:58.463Z,11.51
2022-11-18T01:19:26.119Z,11.45
2022-11-18T01:21:53.728Z,11.34
2022-11-18T01:24:21.130Z,11.46
2022-11-18T01:26:48.687Z,11.58
2022-11-18T01:29:16.149Z,11.59
2022-11-18T01:32:08.804Z,11.44
2022-11-18T01:34:31.399Z,11.44
2022-11-18T01:36:58.626Z,11.55
2022-11-18T01:39:26.002Z,11.57
2022-11-18T01:41:53.192Z,11.50
2022-11-18T01:45:11.570Z,11.30
2022-11-18T01:47:58.853Z,11.28
2022-11-18T01:50:26.816Z,11.38
2022-11-18T01:52:57.836Z,11.32
2022-11-18T01:55:27.039Z,11.33
2022-11-18T01:58:02.996Z,11.38
2022-11-18T02:00:30.399Z,11.40
2022-11-18T02:02:57.770Z,11.40
2022-11-18T02:05:25.375Z,11.58
2022-11-18T02:07:52.789Z,11.42
2022-11-18T02:10:22.464Z,11.45
2022-11-18T02:12:51.247Z,11.42
2022-11-18T02:15:26.037Z,11.36
2022-11-18T02:18:01.482Z,11.48
2022-11-18T02:20:31.996Z,11.54
2022-11-18T02:23:36.927Z,11.50
2022-11-18T02:26:13.502Z,11.43
2022-11-18T02:28:50.339Z,11.46
2022-11-18T02:31:30.046Z,11.32
2022-11-18T02:34:18.277Z,11.46
2022-11-18T02:36:53.705Z,11.29
2022-11-18T02:39:26.213Z,11.36
2022-11-18T02:41:56.196Z,11.07
2022-11-18T02:44:25.248Z,11.11
2022-11-18T02:46:56.904Z,11.07
2022-11-18T02:49:36.327Z,11.18
2022-11-18T02:52:04.774Z,11.19
2022-11-18T02:54:33.203Z,11.38
2022-11-18T02:57:01.510Z,11.37
2022-11-18T02:59:28.919Z,11.24
2022-11-18T03:01:56.502Z,11.30
2022-11-18T03:04:25.896Z,11.32
2022-11-18T03:07:32.349Z,11.63
2022-11-18T03:10:00.790Z,11.39
2022-11-18T03:12:49.271Z,11.61
2022-11-18T03:15:29.549Z,11.55
2022-11-18T03:18:11.904Z,11.63
2022-11-18T03:20:45.483Z,11.31
2022-11-18T03:23:38.067Z,11.13
2022-11-18T03:26:20.342Z,11.10
2022-11-18T03:29:07.176Z,11.12
2022-11-18T03:31:40.840Z,11.05
2022-11-18T03:34:12.662Z,11.15
2022-11-18T03:36:42.518Z,11.13
2022-11-18T03:39:12.382Z,11.08
2022-11-18T03:41:44.223Z,11.04
2022-11-18T03:44:16.274Z,11.09
2022-11-18T03:46:51.773Z,11.10
2022-11-18T03:49:30.458Z,11.01
2022-11-18T03:52:02.978Z,10.84
2022-11-18T03:54:31.683Z,11.01
2022-11-18T03:57:17.378Z,10.93
2022-11-18T03:59:48.702Z,10.95
2022-11-18T04:02:19.184Z,10.95
2022-11-18T04:04:48.546Z,11.14
2022-11-18T04:07:39.007Z,11.03
2022-11-18T04:10:12.003Z,11.11
2022-11-18T04:12:53.359Z,11.17
2022-11-18T04:15:20.824Z,11.13
2022-11-18T04:17:48.376Z,11.12
2022-11-18T04:20:18.456Z,11.04
2022-11-18T04:22:46.360Z,10.99
2022-11-18T04:25:13.629Z,10.82
2022-11-18T04:27:40.872Z,10.86
2022-11-18T04:30:09.105Z,10.88
2022-11-18T04:32:36.387Z,10.94
2022-11-18T04:35:03.931Z,10.96
2022-11-18T04:37:31.204Z,10.91
2022-11-18T04:39:58.487Z,11.05
2022-11-18T04:42:25.937Z,10.97
2022-11-18T04:44:53.159Z,10.97
2022-11-18T04:47:21.126Z,10.99
2022-11-18T04:49:48.452Z,10.84
2022-11-18T04:52:16.037Z,10.97
2022-11-18T04:54:43.513Z,10.81
2022-11-18T04:57:10.747Z,10.87
2022-11-18T04:59:38.529Z,10.65
2022-11-18T05:02:06.060Z,10.82
2022-11-18T05:04:34.827Z,10.77
2022-11-18T05:07:03.901Z,11.13
2022-11-18T05:09:32.438Z,10.86
2022-11-18T05:12:19.452Z,10.94
2022-11-18T05:14:50.031Z,11.02
2022-11-18T05:17:18.861Z,10.92
2022-11-18T05:19:46.218Z,10.87
2022-11-18T05:22:14.718Z,10.75
2022-11-18T05:24:42.010Z,10.83
2022-11-18T05:27:09.467Z,10.98
2022-11-18T05:29:36.605Z,10.68
2022-11-18T05:32:04.067Z,10.75
2022-11-18T05:34:31.224Z,10.83
2022-11-18T05:36:58.551Z,10.72
2022-11-18T05:39:25.751Z,10.67
2022-11-18T05:42:11.585Z,10.71
2022-11-18T05:44:38.798Z,10.79
2022-11-18T05:47:06.307Z,10.95
2022-11-18T05:49:33.530Z,10.71
2022-11-18T05:52:00.889Z,10.66
2022-11-18T05:54:28.357Z,10.53
2022-11-18T05:56:55.781Z,10.75
2022-11-18T05:59:23.163Z,10.72
2022-11-18T06:01:57.065Z,10.84
2022-11-18T06:04:28.705Z,10.73
2022-11-18T06:06:59.826Z,10.59
2022-11-18T06:09:28.909Z,10.55
2022-11-18T06:11:57.347Z,10.81
2022-11-18T06:14:30.287Z,10.76
2022-11-18T06:17:00.819Z,10.71
2022-11-18T06:19:28.192Z,10.54
2022-11-18T06:21:55.855Z,10.64
2022-11-18T06:24:23.952Z,10.53
2022-11-18T06:26:51.589Z,10.41
2022-11-18T06:29:26.015Z,10.48
2022-11-18T06:31:54.965Z,10.58
2022-11-18T06:34:22.455Z,10.85
2022-11-18T06:36:49.839Z,10.73
2022-11-18T06:39:17.470Z,10.68
2022-11-18T06:41:44.976Z,10.65
2022-11-18T06:44:12.927Z,10.76
2022-11-18T06:46:58.377Z,10.65
2022-11-18T06:49:27.297Z,10.62
2022-11-18T06:51:54.949Z,10.50
2022-11-18T06:54:22.467Z,10.35
2022-11-18T06:56:49.689Z,10.49
2022-11-18T06:59:23.528Z,10.37
2022-11-18T07:01:53.080Z,10.37
2022-11-18T07:04:21.045Z,10.50
2022-11-18T07:06:48.796Z,10.42
2022-11-18T07:09:16.430Z,10.34
2022-11-18T07:11:44.034Z,10.38
2022-11-18T07:14:12.739Z,10.50
2022-11-18T07:16:39.980Z,10.47
2022-11-18T07:19:11.961Z,10.39
2022-11-18T07:21:39.912Z,10.35
2022-11-18T07:24:08.067Z,10.37
2022-11-18T07:26:35.687Z,10.28
2022-11-18T07:29:03.996Z,10.27
2022-11-18T07:31:32.132Z,10.23
2022-11-18T07:33:59.431Z,10.31
2022-11-18T07:36:33.944Z,10.23
2022-11-18T07:39:04.278Z,10.13
2022-11-18T07:41:31.620Z,10.35
2022-11-18T07:44:01.459Z,10.91
2022-11-18T07:46:32.412Z,11.15
2022-11-18T07:49:01.594Z,11.40
2022-11-18T07:51:30.859Z,11.62
2022-11-18T07:53:58.053Z,12.39
2022-11-18T07:56:25.472Z,13.02
2022-11-18T07:58:56.225Z,12.90
2022-11-18T08:01:25.522Z,12.92
2022-11-18T08:03:52.808Z,13.72
2022-11-18T08:06:20.455Z,13.37
2022-11-18T08:08:47.818Z,13.57
2022-11-18T08:11:21.853Z,13.73
2022-11-18T08:13:50.269Z,13.91
2022-11-18T08:16:20.042Z,13.03
2022-11-18T08:18:47.421Z,13.71
2022-11-18T08:21:15.098Z,12.52
2022-11-18T08:23:42.906Z,12.51
2022-11-18T08:26:14.522Z,12.55
2022-11-18T08:28:42.853Z,12.98
2022-11-18T08:31:11.612Z,13.09
2022-11-18T08:33:39.224Z,13.30
2022-11-18T08:36:18.547Z,13.92
2022-11-18T08:38:45.816Z,14.06
2022-11-18T08:41:14.966Z,14.23
2022-11-18T08:43:42.647Z,14.06
2022-11-18T08:46:10.090Z,14.53
2022-11-18T08:48:37.364Z,14.28
2022-11-18T08:51:04.889Z,13.92
2022-11-18T08:53:32.928Z,14.27
2022-11-18T08:56:01.279Z,14.15
2022-11-18T08:58:28.827Z,13.45
2022-11-18T09:00:56.152Z,13.47
2022-11-18T09:03:23.687Z,14.04
2022-11-18T09:05:50.931Z,14.43
2022-11-18T09:08:18.208Z,14.36
2022-11-18T09:10:45.501Z,14.33
2022-11-18T09:13:40.416Z,14.51
2022-11-18T09:16:00.965Z,13.99
2022-11-18T09:18:28.766Z,13.80
2022-11-18T09:21:00.505Z,13.90
2022-11-18T09:23:27.920Z,14.46
2022-11-18T09:26:04.343Z,14.01
2022-11-18T09:28:32.861Z,14.50
2022-11-18T09:31:03.928Z,14.40
2022-11-18T09:33:31.276Z,13.20
2022-11-18T09:35:58.473Z,13.85
2022-11-18T09:38:25.956Z,14.13
2022-11-18T09:41:03.897Z,14.26
2022-11-18T09:43:47.725Z,14.05
2022-11-18T09:46:27.560Z,14.22
2022-11-18T09:49:15.911Z,13.91
2022-11-18T09:51:46.425Z,13.79
2022-11-18T09:54:20.214Z,14.55
2022-11-18T09:56:48.704Z,14.64
2022-11-18T09:59:19.063Z,14.17
2022-11-18T10:01:46.158Z,14.26
2022-11-18T10:04:17.849Z,14.37
2022-11-18T10:06:46.283Z,14.21
2022-11-18T10:09:30.788Z,14.40
2022-11-18T10:12:23.100Z,14.56
2022-11-18T10:15:08.601Z,14.32
2022-11-18T10:18:09.117Z,14.60
2022-11-18T10:20:45.514Z,14.79
2022-11-18T10:23:21.350Z,14.52
2022-11-18T10:25:48.739Z,14.80
2022-11-18T10:28:29.301Z,14.77
2022-11-18T10:31:11.248Z,14.71
2022-11-18T10:33:39.067Z,15.16
2022-11-18T10:36:18.462Z,14.89
2022-11-18T10:38:49.986Z,15.45
2022-11-18T10:41:20.543Z,15.46
2022-11-18T10:43:55.648Z,15.76
2022-11-18T10:46:31.026Z,15.29
2022-11-18T10:49:10.713Z,15.30
2022-11-18T10:51:40.935Z,15.65
2022-11-18T10:54:09.518Z,16.02
2022-11-18T10:56:57.548Z,14.80
2022-11-18T10:59:26.846Z,14.72
2022-11-18T11:02:09.463Z,14.28
2022-11-18T11:04:38.023Z,15.14
2022-11-18T11:07:22.045Z,15.49
2022-11-18T11:10:05.148Z,15.44
2022-11-18T11:12:47.173Z,15.11
2022-11-18T11:15:17.807Z,15.09
2022-11-18T11:18:16.827Z,14.63
2022-11-18T11:20:44.440Z,14.01
2022-11-18T11:23:15.691Z,14.17
2022-11-18T11:29:26.026Z,14.96
2022-11-18T11:32:03.189Z,14.79
2022-11-18T11:34:55.795Z,14.51
2022-11-18T11:37:23.103Z,14.61
2022-11-18T11:40:02.560Z,15.22
2022-11-18T11:42:42.923Z,14.70
2022-11-18T11:45:10.301Z,14.47
2022-11-18T11:47:47.874Z,14.90
2022-11-18T11:50:32.886Z,15.43
2022-11-18T11:53:28.862Z,15.70
2022-11-18T11:56:12.529Z,15.22
2022-11-18T11:59:07.705Z,15.42
2022-11-18T12:01:50.600Z,15.04
2022-11-18T12:04:33.819Z,15.10
2022-11-18T12:07:01.869Z,15.07
2022-11-18T12:09:44.006Z,14.83
2022-11-18T12:12:36.095Z,15.20
2022-11-18T12:15:16.481Z,14.57
2022-11-18T12:17:49.082Z,14.88
2022-11-18T12:20:36.494Z,14.99
2022-11-18T12:23:12.815Z,15.32
2022-11-18T12:25:59.953Z,14.64
2022-11-18T12:28:27.267Z,14.60
2022-11-18T12:31:33.379Z,14.94
2022-11-18T12:34:26.827Z,15.27
2022-11-18T12:36:54.345Z,15.58
2022-11-18T12:39:24.419Z,15.44
2022-11-18T12:42:10.911Z,15.19
2022-11-18T12:44:39.372Z,15.23
2022-11-18T12:47:08.463Z,14.99
2022-11-18T12:49:36.305Z,15.21
2022-11-18T12:52:29.212Z,15.24
2022-11-18T12:55:15.208Z,15.67
2022-11-18T12:57:42.360Z,15.68
2022-11-18T13:00:24.870Z,16.07
2022-11-18T13:02:56.972Z,16.19
2022-11-18T13:05:29.519Z,15.26
2022-11-18T13:08:15.982Z,15.11
2022-11-18T13:10:43.184Z,15.33
2022-11-18T13:13:24.799Z,15.44
2022-11-18T13:16:12.349Z,15.11
2022-11-18T13:18:48.401Z,15.73
2022-11-18T13:21:43.428Z,16.16
2022-11-18T13:24:15.192Z,16.44
2022-11-18T13:26:44.469Z,16.33
2022-11-18T13:29:33.583Z,15.29
2022-11-18T13:32:09.498Z,14.79
2022-11-18T13:34:47.330Z,14.75
2022-11-18T13:37:21.164Z,15.76
2022-11-18T13:39:49.541Z,15.70
2022-11-18T13:42:16.876Z,16.08
2022-11-18T13:44:46.713Z,15.73
2022-11-18T13:47:26.415Z,15.78
2022-11-18T13:49:56.463Z,15.11
2022-11-18T13:52:29.053Z,15.16
2022-11-18T13:54:57.534Z,15.75
2022-11-18T13:57:25.657Z,15.76
2022-11-18T13:59:54.925Z,15.54
2022-11-18T14:02:22.348Z,15.62
2022-11-18T14:04:55.267Z,15.36
2022-11-18T14:07:34.657Z,15.72
2022-11-18T14:10:09.081Z,16.01
2022-11-18T14:12:36.581Z,15.83
2022-11-18T14:15:33.147Z,15.65
2022-11-18T14:18:01.565Z,15.64
2022-11-18T14:20:30.296Z,16.12
2022-11-18T14:23:01.457Z,15.42
2022-11-18T14:25:34.189Z,15.25
2022-11-18T14:28:16.750Z,15.54
2022-11-18T14:31:03.767Z,15.27
2022-11-18T14:33:31.937Z,15.32
2022-11-18T14:36:00.370Z,15.12
2022-11-18T14:41:45.483Z,15.00
2022-11-18T14:44:15.836Z,15.45
2022-11-18T14:46:43.982Z,14.51
2022-11-18T14:49:14.456Z,14.81
2022-11-18T14:51:41.729Z,15.45
2022-11-18T14:54:13.137Z,15.69
2022-11-18T14:56:40.883Z,15.89
2022-11-18T14:59:13.293Z,15.46
2022-11-18T15:01:41.952Z,15.08
2022-11-18T15:04:09.453Z,15.18
2022-11-18T15:06:37.725Z,14.90
2022-11-18T15:09:05.762Z,14.72
2022-11-18T15:11:33.190Z,14.77
2022-11-18T15:14:00.345Z,15.25
2022-11-18T15:16:30.354Z,15.22
2022-11-18T15:19:00.310Z,15.42
2022-11-18T15:21:28.044Z,15.28
2022-11-18T15:23:55.528Z,15.43
2022-11-18T15:26:25.211Z,15.48
2022-11-18T15:28:55.054Z,15.73
2022-11-18T15:31:23.763Z,15.68
2022-11-18T15:33:51.641Z,16.00
2022-11-18T15:36:20.803Z,15.85
2022-11-18T15:38:48.726Z,15.72
2022-11-18T15:41:18.158Z,15.70
2022-11-18T15:43:45.484Z,15.57
2022-11-18T15:46:13.072Z,15.58
2022-11-18T15:48:40.606Z,15.51
2022-11-18T15:51:11.936Z,15.37
2022-11-18T15:53:39.928Z,15.44
2022-11-18T15:56:25.956Z,15.71
2022-11-18T15:59:05.355Z,15.79
2022-11-18T16:01:40.880Z,15.58
2022-11-18T16:04:11.364Z,15.33
2022-11-18T16:06:39.161Z,15.54
2022-11-18T16:09:07.029Z,15.29
2022-11-18T16:11:52.858Z,15.44
2022-11-18T16:14:21.876Z,15.27
2022-11-18T16:16:51.944Z,15.21
2022-11-18T16:19:21.401Z,15.17
2022-11-18T16:21:50.402Z,15.06
2022-11-18T16:24:20.587Z,15.15
2022-11-18T16:26:48.829Z,15.07
2022-11-18T16:29:17.363Z,15.14
2022-11-18T16:31:50.554Z,15.09
2022-11-18T16:34:22.142Z,15.01
2022-11-18T16:36:52.194Z,14.93
2022-11-18T16:39:24.061Z,15.05
2022-11-18T16:41:52.657Z,14.85
2022-11-18T16:44:20.031Z,14.86
2022-11-18T16:46:49.886Z,14.86
2022-11-18T16:49:19.494Z,14.90
2022-11-18T16:51:49.145Z,14.75
2022-11-18T16:54:19.220Z,14.86
2022-11-18T16:56:47.715Z,14.90
2022-11-18T16:59:17.617Z,14.80
2022-11-18T17:01:45.244Z,14.71
2022-11-18T17:04:12.747Z,14.72
2022-11-18T17:06:40.595Z,14.61
2022-11-18T17:09:13.215Z,14.62
2022-11-18T17:11:40.485Z,14.89
2022-11-18T17:14:07.931Z,14.93
2022-11-18T17:16:37.411Z,13.91
2022-11-18T17:19:10.173Z,14.32
2022-11-18T17:21:39.259Z,14.95
2022-11-18T17:24:07.913Z,14.42
2022-11-18T17:26:35.214Z,14.61
2022-11-18T17:29:02.400Z,14.41
2022-11-18T17:31:29.662Z,14.61
2022-11-18T17:33:56.989Z,14.86
2022-11-18T17:36:26.418Z,14.81
2022-11-18T17:38:55.701Z,14.74
2022-11-18T17:41:43.471Z,14.70
2022-11-18T17:44:11.999Z,14.72
2022-11-18T17:46:39.497Z,14.44
2022-11-18T17:49:13.033Z,14.35
2022-11-18T17:51:40.584Z,14.53
2022-11-18T17:54:08.651Z,14.41
2022-11-18T17:56:36.254Z,14.39
2022-11-18T17:59:03.738Z,14.36
2022-11-18T18:01:31.200Z,14.36
2022-11-18T18:03:58.466Z,14.22
2022-11-18T18:06:26.809Z,14.29
2022-11-18T18:08:59.895Z,14.46
2022-11-18T18:11:27.435Z,14.58
2022-11-18T18:14:13.423Z,14.38
2022-11-18T18:16:46.040Z,14.45
2022-11-18T18:19:18.901Z,14.38
2022-11-18T18:21:46.731Z,14.35
2022-11-18T18:24:19.585Z,14.29
2022-11-18T18:26:47.379Z,14.34
2022-11-18T18:29:14.673Z,14.31
2022-11-18T18:31:41.985Z,14.15
2022-11-18T18:34:09.171Z,14.23
2022-11-18T18:36:37.312Z,14.48
2022-11-18T18:39:04.773Z,14.36
2022-11-18T18:41:32.653Z,14.22
2022-11-18T18:44:01.121Z,14.44
2022-11-18T18:46:34.205Z,14.31
2022-11-18T18:49:06.390Z,13.99
2022-11-18T18:51:41.839Z,14.06
2022-11-18T18:54:14.776Z,14.14
2022-11-18T18:56:42.643Z,14.30
2022-11-18T18:59:10.388Z,14.40
2022-11-18T19:01:38.651Z,14.25
2022-11-18T19:04:07.138Z,14.06
2022-11-18T19:06:59.371Z,14.26
2022-11-18T19:09:28.092Z,14.16
2022-11-18T19:12:25.067Z,14.23
2022-11-18T19:14:52.450Z,14.26
2022-11-18T19:17:20.291Z,14.15
2022-11-18T19:20:06.275Z,14.14
2022-11-18T19:22:33.914Z,14.04
2022-11-18T19:25:01.670Z,13.98
2022-11-18T19:27:29.400Z,14.06
2022-11-18T19:29:56.732Z,13.99
2022-11-18T19:32:23.987Z,13.77
2022-11-18T19:34:51.392Z,13.76
2022-11-18T19:37:18.673Z,13.99
2022-11-18T19:39:45.939Z,14.06
2022-11-18T19:42:13.257Z,14.04
2022-11-18T19:44:40.666Z,14.03
2022-11-18T19:47:07.925Z,14.03
2022-11-18T19:49:35.189Z,14.14
2022-11-18T19:52:02.596Z,13.97
2022-11-18T19:54:29.927Z,13.94
2022-11-18T19:56:57.428Z,13.98
2022-11-18T19:59:24.740Z,13.93
2022-11-18T20:01:51.966Z,13.82
2022-11-18T20:04:19.308Z,13.85
2022-11-18T20:06:46.809Z,14.05
2022-11-18T20:09:14.157Z,13.89
2022-11-18T20:11:42.879Z,13.82
2022-11-18T20:14:11.315Z,13.70
2022-11-18T20:16:38.632Z,13.78
2022-11-18T20:19:17.860Z,13.64
2022-11-18T20:21:47.944Z,13.85
2022-11-18T20:24:16.145Z,13.71
2022-11-18T20:26:44.224Z,13.77
2022-11-18T20:29:11.815Z,13.65
2022-11-18T20:31:39.183Z,13.85
2022-11-18T20:34:06.383Z,13.92
2022-11-18T20:36:35.918Z,13.63
2022-11-18T20:39:08.015Z,13.32
2022-11-18T20:41:36.477Z,13.69
2022-11-18T20:44:04.034Z,13.74
2022-11-18T20:46:31.560Z,13.72
2022-11-18T20:48:58.849Z,13.75
2022-11-18T20:51:28.200Z,13.43
2022-11-18T20:53:56.556Z,13.64
2022-11-18T20:56:25.832Z,13.55
2022-11-18T20:58:53.402Z,13.37
2022-11-18T21:01:26.124Z,12.96
2022-11-18T21:03:58.131Z,13.20
2022-11-18T21:06:27.810Z,13.47
2022-11-18T21:09:00.250Z,13.60
2022-11-18T21:11:28.080Z,13.72
2022-11-18T21:14:18.422Z,13.00
2022-11-18T21:16:49.116Z,12.99
2022-11-18T21:19:16.696Z,13.30
2022-11-18T21:21:44.435Z,13.15
2022-11-18T21:24:32.309Z,13.23
2022-11-18T21:27:00.944Z,13.39
2022-11-18T21:29:30.050Z,12.93
2022-11-18T21:31:58.293Z,12.98
2022-11-18T21:34:25.564Z,13.00
2022-11-18T21:36:55.005Z,13.36
2022-11-18T21:39:25.967Z,13.29
2022-11-18T21:41:56.785Z,12.92
2022-11-18T21:44:25.034Z,12.96
2022-11-18T21:46:52.311Z,13.11
2022-11-18T21:49:19.786Z,13.14
2022-11-18T21:51:47.076Z,13.02
2022-11-18T21:54:15.914Z,13.09
2022-11-18T21:56:43.659Z,13.02
2022-11-18T21:59:10.872Z,12.86
2022-11-18T22:01:38.033Z,12.77
2022-11-18T22:04:05.884Z,13.15
2022-11-18T22:06:34.402Z,12.95
2022-11-18T22:09:03.747Z,13.19
2022-11-18T22:11:31.062Z,12.65
2022-11-18T22:13:58.336Z,12.78
2022-11-18T22:16:26.765Z,12.60
2022-11-18T22:19:01.535Z,12.63
2022-11-18T22:21:31.191Z,12.19
2022-11-18T22:23:59.847Z,12.75
2022-11-18T22:26:27.605Z,12.53
2022-11-18T22:28:56.239Z,12.88
2022-11-18T22:31:25.016Z,12.66
2022-11-18T22:33:52.936Z,12.93
2022-11-18T22:36:22.056Z,12.85
2022-11-18T22:38:49.553Z,12.90
2022-11-18T22:41:37.344Z,12.87
2022-11-18T22:44:08.074Z,12.76
2022-11-18T22:46:36.465Z,12.44
2022-11-18T22:49:04.956Z,12.72
2022-11-18T22:51:32.412Z,12.85
2022-11-18T22:54:30.840Z,12.95
2022-11-18T22:56:49.552Z,13.19
2022-11-18T22:59:17.385Z,13.23
2022-11-18T23:01:44.918Z,13.19
2022-11-18T23:04:12.192Z,12.93
2022-11-18T23:06:39.467Z,13.12
2022-11-18T23:09:06.714Z,13.66
2022-11-18T23:11:52.259Z,14.13
2022-11-18T23:14:19.483Z,13.53
2022-11-18T23:16:46.686Z,13.65
2022-11-18T23:19:17.293Z,13.05
2022-11-18T23:21:45.355Z,13.31
2022-11-18T23:24:13.929Z,13.34
2022-11-18T23:26:41.525Z,13.18
2022-11-18T23:29:10.293Z,12.78
2022-11-18T23:31:43.684Z,12.72
2022-11-18T23:34:12.283Z,12.76
2022-11-18T23:36:40.053Z,12.84
2022-11-18T23:39:07.950Z,13.18
2022-11-18T23:41:35.499Z,13.02
2022-11-18T23:44:03.121Z,13.18
2022-11-18T23:46:30.447Z,13.18
2022-11-18T23:48:57.609Z,13.18
2022-11-18T23:51:25.482Z,12.91
2022-11-18T23:53:55.632Z,12.89
2022-11-18T23:56:25.070Z,13.07
2022-11-18T23:58:53.824Z,12.80
